Time;durP1;ratioP1;P1;durP2;ratioP2;P2;SDS_P1;SDS_P2;PMS_P1;PMS_P2;Temp;Humidity;BMP_temperature;BMP_pressure;BME280_temperature;BME280_humidity;BME280_pressure;Samples;Min_cycle;Max_cycle;Signal;HPM_P1;HPM_P2
2023/09/18 00:00:15;;;;;;;6.57;2.20;;;;;;;-145.69;53.15;51963.19;5134190;27;20200;-83
2023/09/18 00:02:43;;;;;;;4.50;2.05;;;;;;;-145.69;52.28;51957.25;5134921;27;20227;-83
2023/09/18 00:05:10;;;;;;;3.30;1.83;;;;;;;-145.69;52.15;51961.19;5135621;27;20204;-83
2023/09/18 00:07:36;;;;;;;6.05;1.98;;;;;;;-145.69;52.09;51937.44;5134972;27;20196;-83
2023/09/18 00:10:03;;;;;;;4.32;2.22;;;;;;;-145.69;52.32;51984.97;5134818;27;20197;-81
2023/09/18 00:12:30;;;;;;;3.33;1.90;;;;;;;-145.69;52.41;51937.44;5134828;27;20208;-81
2023/09/18 00:14:56;;;;;;;6.20;2.03;;;;;;;-145.69;51.35;51945.34;5135482;27;20201;-83
2023/09/18 00:17:23;;;;;;;7.80;2.20;;;;;;;-145.69;51.74;51941.41;5136137;27;20232;-82
2023/09/18 00:19:52;;;;;;;3.38;2.00;;;;;;;-145.69;51.50;51941.41;5135811;27;20655;-83
2023/09/18 00:22:18;;;;;;;5.05;1.85;;;;;;;-145.69;51.15;51949.31;5125262;27;20221;-82
2023/09/18 00:24:45;;;;;;;3.70;1.90;;;;;;;-145.69;50.78;51917.63;5114392;28;20189;-83
2023/09/18 00:27:12;;;;;;;6.45;2.33;;;;;;;-145.69;50.57;51953.28;5114171;28;20197;-82
2023/09/18 00:29:38;;;;;;;3.30;1.88;;;;;;;-145.69;50.68;51937.44;5114677;28;20209;-81
2023/09/18 00:32:05;;;;;;;7.28;2.53;;;;;;;-145.69;51.52;51935.47;5124133;28;20208;-83
2023/09/18 00:34:32;;;;;;;2.88;1.80;;;;;;;-145.69;51.03;51947.34;5122960;28;20209;-82
2023/09/18 00:37:00;;;;;;;3.35;1.73;;;;;;;-145.69;51.33;51911.69;5116737;28;20232;-81
2023/09/18 00:39:27;;;;;;;7.20;2.13;;;;;;;-145.69;49.05;51921.59;5094481;28;20213;-82
2023/09/18 00:41:54;;;;;;;9.68;1.60;;;;;;;-145.69;44.46;51917.63;5094537;28;20198;-84
2023/09/18 00:44:21;;;;;;;5.03;1.77;;;;;;;-145.69;44.09;51909.72;5093845;28;20575;-82
2023/09/18 00:46:48;;;;;;;9.55;2.28;;;;;;;-145.69;42.99;51937.44;5094387;28;20202;-84
2023/09/18 00:49:15;;;;;;;4.93;1.40;;;;;;;-145.69;42.34;51933.47;5093137;28;20675;-80
2023/09/18 00:51:41;;;;;;;5.60;1.40;;;;;;;-145.69;42.44;51903.78;5102745;28;20193;-82
2023/09/18 00:54:10;;;;;;;11.07;1.80;;;;;;;-145.69;42.16;51880.00;5133744;27;20211;-80
2023/09/18 00:56:37;;;;;;;4.88;1.73;;;;;;;-145.69;42.71;51901.78;5129149;27;20185;-82
2023/09/18 00:59:04;;;;;;;3.80;1.60;;;;;;;-145.69;43.94;51935.47;5117442;28;20205;-83
2023/09/18 01:01:32;;;;;;;3.85;1.38;;;;;;;-145.69;44.25;51919.63;5121453;28;20205;-85
2023/09/18 01:03:59;;;;;;;4.90;2.13;;;;;;;-145.69;45.52;51931.50;5129396;28;20228;-82
2023/09/18 01:06:30;;;;;;;5.30;1.58;;;;;;;-145.69;46.04;51901.78;5133288;27;20200;-82
2023/09/18 01:08:57;;;;;;;8.05;1.90;;;;;;;-145.69;46.26;51903.78;5134251;27;20201;-81
2023/09/18 01:11:31;;;;;;;7.07;2.05;;;;;;;-145.69;45.70;51925.56;5132771;28;20193;-82
2023/09/18 01:14:07;;;;;;;3.30;1.50;;;;;;;-145.69;46.30;51929.50;5134669;28;20768;-83
2023/09/18 01:16:45;;;;;;;6.72;2.08;;;;;;;-145.69;47.70;51925.56;5134262;27;20203;-81
2023/09/18 01:19:12;;;;;;;4.78;1.63;;;;;;;-145.69;48.39;51889.91;5132981;27;20358;-82
2023/09/18 01:21:38;;;;;;;3.10;1.60;;;;;;;-145.69;48.77;51925.56;5134195;27;20200;-81
2023/09/18 01:24:06;;;;;;;6.93;1.73;;;;;;;-145.69;48.13;51933.47;5134848;27;20228;-82
2023/09/18 01:26:33;;;;;;;4.35;1.80;;;;;;;-145.69;48.77;51945.34;5134135;27;20193;-82
2023/09/18 01:28:59;;;;;;;7.68;1.85;;;;;;;-145.69;48.15;51927.53;5133529;27;20211;-81
2023/09/18 01:31:27;;;;;;;4.82;2.00;;;;;;;-145.69;47.58;51945.34;5118420;27;20196;-81
2023/09/18 01:33:53;;;;;;;4.07;2.03;;;;;;;-145.69;47.15;51953.28;5112588;28;20232;-81
2023/09/18 01:36:21;;;;;;;8.30;2.00;;;;;;;-145.69;46.94;51941.41;5113041;28;20198;-81
2023/09/18 01:38:48;;;;;;;6.38;1.73;;;;;;;-145.69;46.64;51941.41;5113178;28;20201;-82
2023/09/18 01:41:16;;;;;;;11.98;1.75;;;;;;;-145.69;47.66;51963.19;5115338;28;20205;-82
2023/09/18 01:43:42;;;;;;;9.77;2.10;;;;;;;-145.69;49.58;51963.19;5114223;28;20229;-82
2023/09/18 01:46:09;;;;;;;7.45;1.90;;;;;;;-145.69;48.97;51917.63;5112218;28;20195;-81
2023/09/18 01:48:35;;;;;;;5.78;1.90;;;;;;;-145.69;49.93;51963.19;5116306;28;20201;-81
2023/09/18 01:51:02;;;;;;;4.80;2.03;;;;;;;-145.69;49.79;51941.41;5117744;28;20247;-83
2023/09/18 01:53:28;;;;;;;4.75;1.90;;;;;;;-145.69;49.76;51933.47;5116292;28;20201;-81
2023/09/18 01:55:55;;;;;;;3.70;1.42;;;;;;;-145.69;50.07;51959.22;5137478;27;20200;-82
2023/09/18 01:58:23;;;;;;;8.10;1.90;;;;;;;-145.69;48.90;51943.38;5137641;27;20208;-81
2023/09/18 02:00:49;;;;;;;4.38;1.70;;;;;;;-145.69;48.96;51959.22;5136431;27;20211;-81
2023/09/18 02:03:18;;;;;;;8.50;1.80;;;;;;;-145.69;49.43;51937.44;5096047;28;20234;-81
2023/09/18 02:05:44;;;;;;;6.47;1.95;;;;;;;-145.69;49.31;51949.31;5096366;28;20198;-82
2023/09/18 02:08:11;;;;;;;11.23;2.40;;;;;;;-145.69;49.77;51965.16;5097107;28;20247;-82
2023/09/18 02:10:37;;;;;;;5.72;1.65;;;;;;;-145.69;51.15;51957.25;5098980;27;20198;-81
2023/09/18 02:13:04;;;;;;;5.22;1.88;;;;;;;-145.69;52.39;51937.44;5137001;27;20222;-82
2023/09/18 02:15:32;;;;;;;5.15;1.90;;;;;;;-145.69;53.25;51969.13;5133280;27;20435;-83
2023/09/18 02:17:58;;;;;;;6.00;1.70;;;;;;;-145.69;53.05;51977.03;5116373;28;20614;-82
2023/09/18 02:20:25;;;;;;;6.85;2.10;;;;;;;-145.69;52.60;51961.19;5116371;28;20201;-82
2023/09/18 02:22:51;;;;;;;5.25;2.13;;;;;;;-145.69;52.57;51951.28;5115877;28;20229;-82
2023/09/18 02:25:18;;;;;;;5.68;1.80;;;;;;;-145.69;51.98;51961.19;5116987;27;20197;-81
2023/09/18 02:27:44;;;;;;;6.95;1.83;;;;;;;-145.69;52.35;51984.97;5115837;28;20209;-82
2023/09/18 02:30:12;;;;;;;7.55;2.20;;;;;;;-145.69;52.42;51949.31;5115904;28;20202;-82
2023/09/18 02:32:40;;;;;;;5.90;1.42;;;;;;;-145.69;53.09;51977.03;5123152;27;20196;-81
2023/09/18 02:35:08;;;;;;;4.50;1.80;;;;;;;-145.69;53.17;51969.13;5136443;27;20192;-81
2023/09/18 02:37:34;;;;;;;6.82;1.85;;;;;;;-145.69;53.01;51965.16;5136626;27;20243;-82
2023/09/18 02:40:02;;;;;;;4.18;1.67;;;;;;;-145.69;53.10;51973.06;5139051;27;20197;-82
2023/09/18 02:42:28;;;;;;;4.72;1.85;;;;;;;-145.69;53.36;52000.81;5138469;27;20204;-82
2023/09/18 02:44:55;;;;;;;4.78;1.83;;;;;;;-145.69;53.53;51992.88;5139629;27;20203;-83
2023/09/18 02:47:21;;;;;;;3.05;1.77;;;;;;;-145.69;53.89;51977.03;5137081;27;20208;-82
2023/09/18 02:49:49;;;;;;;4.95;1.75;;;;;;;-145.69;54.54;51963.19;5136546;27;20204;-81
2023/09/18 02:52:15;;;;;;;4.60;1.88;;;;;;;-145.69;55.67;51953.28;5136933;27;20204;-81
2023/09/18 02:54:42;;;;;;;9.23;2.25;;;;;;;-145.69;55.64;51984.97;5128975;27;20201;-81
2023/09/18 02:57:08;;;;;;;6.65;2.00;;;;;;;-145.69;55.87;51973.06;5115375;28;20202;-81
2023/09/18 02:59:35;;;;;;;3.58;1.77;;;;;;;-145.69;55.61;51981.00;5115036;28;20209;-81
2023/09/18 03:02:01;;;;;;;7.00;1.95;;;;;;;-145.69;56.14;52006.75;5114878;28;20194;-81
2023/09/18 03:04:28;;;;;;;9.35;1.92;;;;;;;-145.69;56.07;52008.72;5125502;27;20225;-82
2023/09/18 03:06:55;;;;;;;8.50;2.30;;;;;;;-145.69;55.58;51981.00;5136055;27;20200;-82
2023/09/18 03:09:22;;;;;;;9.38;1.88;;;;;;;-145.69;55.82;51994.88;5137114;27;20204;-82
2023/09/18 03:11:49;;;;;;;4.57;1.83;;;;;;;-145.69;55.93;52006.75;5134732;27;20238;-81
2023/09/18 03:14:15;;;;;;;5.28;2.10;;;;;;;-145.69;56.12;52008.72;5134826;27;20241;-82
2023/09/18 03:16:41;;;;;;;5.45;1.95;;;;;;;-145.69;56.16;52014.66;5135341;27;20241;-81
2023/09/18 03:19:08;;;;;;;3.85;1.92;;;;;;;-145.69;56.02;52034.47;5135204;27;20584;-81
2023/09/18 03:21:35;;;;;;;6.38;2.42;;;;;;;-145.69;56.26;52004.75;5135984;27;20225;-82
2023/09/18 03:24:04;;;;;;;8.73;2.35;;;;;;;-145.69;55.97;52020.59;5137538;27;20564;-82
2023/09/18 03:26:30;;;;;;;5.97;2.10;;;;;;;-145.69;56.06;51988.91;5137261;27;20224;-82
2023/09/18 03:28:57;;;;;;;7.57;2.28;;;;;;;-145.69;56.38;52012.69;5135675;27;20211;-82
2023/09/18 03:31:23;;;;;;;6.93;2.05;;;;;;;-145.69;56.22;52020.59;5135207;27;20203;-81
2023/09/18 03:33:50;;;;;;;5.70;2.10;;;;;;;-145.69;56.09;51988.91;5135092;27;20335;-81
2023/09/18 03:36:16;;;;;;;6.53;1.80;;;;;;;-145.69;55.74;52002.78;5134984;27;20204;-80
2023/09/18 03:38:42;;;;;;;6.40;2.10;;;;;;;-145.69;56.09;51996.84;5116188;27;20202;-83
2023/09/18 03:41:10;;;;;;;6.38;2.25;;;;;;;-145.69;55.90;51943.38;5094647;28;20205;-82
2023/09/18 03:43:37;;;;;;;4.95;2.08;;;;;;;-145.69;56.24;52020.59;5093713;28;20237;-80
2023/09/18 03:46:07;;;;;;;6.68;1.90;;;;;;;-145.69;56.32;51973.06;5094172;28;20205;-80
2023/09/18 03:48:37;;;;;;;11.27;2.63;;;;;;;-145.69;54.92;51973.06;5101427;28;20194;-83
2023/09/18 03:51:04;;;;;;;10.43;2.70;;;;;;;-145.69;55.42;51986.94;5120448;27;20199;-83
2023/09/18 03:53:30;;;;;;;6.47;2.25;;;;;;;-145.69;54.60;51982.97;5134816;27;20328;-80
2023/09/18 03:55:57;;;;;;;7.65;2.58;;;;;;;-145.69;54.74;51992.88;5135406;27;20193;-82
2023/09/18 03:58:24;;;;;;;10.13;2.70;;;;;;;-145.69;55.64;51975.06;5135072;27;20193;-81
2023/09/18 04:00:51;;;;;;;11.77;2.85;;;;;;;-145.69;54.81;51949.31;5134975;27;20563;-82
2023/09/18 04:03:17;;;;;;;6.95;2.75;;;;;;;-145.69;54.36;51957.25;5136936;27;20227;-83
2023/09/18 04:05:44;;;;;;;12.48;2.40;;;;;;;-145.69;55.74;51996.84;5136283;27;20204;-81
2023/09/18 04:08:11;;;;;;;11.98;2.85;;;;;;;-145.69;55.71;51979.03;5134531;27;20240;-82
2023/09/18 04:10:37;;;;;;;9.07;2.47;;;;;;;-145.69;55.78;51996.84;5135277;27;20627;-81
2023/09/18 04:13:04;;;;;;;11.32;3.13;;;;;;;-145.69;56.51;52002.78;5136622;27;20196;-82
2023/09/18 04:15:32;;;;;;;11.32;2.90;;;;;;;-145.69;57.13;51963.19;5135113;27;20227;-82
2023/09/18 04:17:58;;;;;;;11.02;2.60;;;;;;;-145.69;57.04;51986.94;5135711;27;20240;-83
2023/09/18 04:20:25;;;;;;;8.65;2.60;;;;;;;-145.69;57.60;51988.91;5134792;27;20211;-82
2023/09/18 04:23:18;;;;;;;20.25;3.63;;;;;;;-145.69;57.50;52008.72;5134715;27;20201;-82
2023/09/18 04:25:45;;;;;;;9.05;2.72;;;;;;;-145.69;58.36;52002.78;5134043;27;20197;-81
2023/09/18 04:28:12;;;;;;;9.27;2.40;;;;;;;-145.69;58.25;51977.03;5134606;27;20193;-82
2023/09/18 04:30:40;;;;;;;5.97;2.60;;;;;;;-145.69;58.13;52028.53;5133896;27;20610;-81
2023/09/18 04:33:06;;;;;;;12.23;2.70;;;;;;;-145.69;57.99;52016.66;5133923;27;20196;-81
2023/09/18 04:35:33;;;;;;;15.25;2.75;;;;;;;-145.69;58.07;51988.91;5134323;27;20204;-81
2023/09/18 04:38:00;;;;;;;12.73;2.58;;;;;;;-145.69;58.59;51975.06;5114183;27;20593;-81
2023/09/18 04:40:31;;;;;;;12.90;2.42;;;;;;;-145.69;59.08;51992.88;5116829;28;20204;-82
2023/09/18 04:42:58;;;;;;;15.50;2.90;;;;;;;-145.69;58.99;52034.47;5113159;28;20555;-81
2023/09/18 04:45:25;;;;;;;10.60;2.58;;;;;;;-145.69;59.37;52020.59;5113311;28;20197;-81
2023/09/18 04:47:52;;;;;;;6.78;2.28;;;;;;;-145.69;59.33;52016.66;5113262;28;20198;-82
2023/09/18 04:50:19;;;;;;;8.98;2.25;;;;;;;-145.69;58.93;52032.47;5113680;28;20204;-82
2023/09/18 04:52:45;;;;;;;9.90;2.60;;;;;;;-145.69;59.15;51994.88;5133084;28;20529;-82
2023/09/18 04:55:12;;;;;;;8.57;2.47;;;;;;;-145.69;58.86;51992.88;5138706;27;20193;-83
2023/09/18 04:57:38;;;;;;;9.30;2.42;;;;;;;-145.69;59.64;51992.88;5133808;27;20199;-81
2023/09/18 05:00:08;;;;;;;11.52;3.13;;;;;;;-145.69;59.84;52008.72;5133433;27;20196;-81
2023/09/18 05:02:35;;;;;;;12.02;2.90;;;;;;;-145.69;59.96;52002.78;5129841;27;20722;-82
2023/09/18 05:05:04;;;;;;;12.38;2.50;;;;;;;-145.69;59.36;51994.88;5134367;27;20228;-81
2023/09/18 05:07:30;;;;;;;11.45;2.50;;;;;;;-145.69;59.45;51973.06;5133639;27;20279;-82
2023/09/18 05:09:56;;;;;;;9.73;2.70;;;;;;;-145.69;59.46;51973.06;5116480;27;20665;-82
2023/09/18 05:12:23;;;;;;;16.13;3.15;;;;;;;-145.69;59.82;51990.91;5114523;28;20639;-82
2023/09/18 05:14:50;;;;;;;10.13;2.40;;;;;;;-145.69;59.24;51996.84;5113489;28;20276;-82
2023/09/18 05:17:18;;;;;;;11.48;2.92;;;;;;;-145.69;59.76;52004.75;5112807;28;20233;-81
2023/09/18 05:19:45;;;;;;;7.70;2.47;;;;;;;-145.69;59.25;52000.81;5113347;28;20201;-80
2023/09/18 05:22:12;;;;;;;15.88;2.30;;;;;;;-145.69;59.19;52018.63;5115507;28;20717;-82
2023/09/18 05:24:39;;;;;;;11.30;2.67;;;;;;;-145.69;58.99;51996.84;5120002;28;20235;-82
2023/09/18 05:27:07;;;;;;;9.65;2.80;;;;;;;-145.69;60.25;51992.88;5125618;27;20852;-82
2023/09/18 05:29:35;;;;;;;13.20;2.75;;;;;;;-145.69;59.85;51992.88;5138016;27;20223;-82
2023/09/18 05:32:01;;;;;;;17.67;2.78;;;;;;;-145.69;59.65;51984.97;5138535;27;20288;-82
2023/09/18 05:34:28;;;;;;;13.50;2.58;;;;;;;-145.69;59.86;51977.03;5123246;27;20198;-82
2023/09/18 05:36:54;;;;;;;8.68;2.22;;;;;;;-145.69;59.51;52014.66;5127213;27;20274;-82
2023/09/18 05:39:22;;;;;;;18.60;2.78;;;;;;;-145.69;59.18;52006.75;5140079;27;20598;-82
2023/09/18 05:41:49;;;;;;;8.20;2.30;;;;;;;-145.69;59.38;51969.13;5137098;27;20562;-82
2023/09/18 05:44:15;;;;;;;8.27;2.20;;;;;;;-145.69;59.39;52008.72;5137252;27;20228;-81
2023/09/18 05:46:42;;;;;;;7.03;2.75;;;;;;;-145.69;59.21;52016.66;5129952;27;20202;-83
2023/09/18 05:49:08;;;;;;;15.27;2.70;;;;;;;-145.69;58.82;51973.06;5116684;28;20208;-81
2023/09/18 05:51:35;;;;;;;7.47;2.15;;;;;;;-145.69;59.11;52016.66;5124659;27;20193;-81
2023/09/18 05:54:01;;;;;;;9.02;2.35;;;;;;;-145.69;58.28;52000.81;5109911;28;20659;-81
2023/09/18 05:56:29;;;;;;;8.35;2.05;;;;;;;-145.69;58.08;52020.59;5116425;28;20208;-81
2023/09/18 05:58:56;;;;;;;8.73;2.30;;;;;;;-145.69;57.46;52024.56;5116603;28;20667;-82
2023/09/18 06:01:23;;;;;;;8.38;2.40;;;;;;;-145.69;56.27;51984.97;5117318;27;20656;-82
2023/09/18 06:03:50;;;;;;;5.68;1.95;;;;;;;-145.69;56.41;51981.00;5116693;28;20260;-82
2023/09/18 06:06:16;;;;;;;7.35;1.83;;;;;;;-145.69;56.71;51992.88;5122365;27;20195;-80
2023/09/18 06:08:43;;;;;;;7.20;1.38;;;;;;;-145.69;54.61;52000.81;5138341;27;20208;-82
2023/09/18 06:11:09;;;;;;;9.35;2.05;;;;;;;-145.69;54.88;51982.97;5134723;27;20632;-82
2023/09/18 06:13:37;;;;;;;9.98;2.05;;;;;;;-145.69;53.55;51998.81;5132994;27;20204;-83
2023/09/18 06:16:07;;;;;;;10.63;2.08;;;;;;;-145.69;53.82;51965.16;5142140;27;20208;-81
2023/09/18 06:18:35;;;;;;;6.47;2.10;;;;;;;-145.69;54.75;51973.06;5138620;27;20586;-84
2023/09/18 06:21:01;;;;;;;8.52;1.90;;;;;;;-145.69;53.95;51949.31;5139802;27;20707;-83
2023/09/18 06:23:28;;;;;;;9.40;1.90;;;;;;;-145.69;53.50;51984.97;5137177;27;20204;-82
2023/09/18 06:25:56;;;;;;;8.35;1.58;;;;;;;-145.69;53.23;51963.19;5138980;27;20288;-81
2023/09/18 06:28:22;;;;;;;11.13;1.83;;;;;;;-145.69;49.99;51982.97;5139535;27;20201;-83
2023/09/18 06:30:50;;;;;;;4.75;1.42;;;;;;;-145.69;51.38;51973.06;5140023;27;20192;-82
2023/09/18 06:33:17;;;;;;;7.18;1.60;;;;;;;-145.69;51.33;51947.34;5138302;27;20204;-81
2023/09/18 06:35:43;;;;;;;5.85;1.05;;;;;;;-145.69;51.35;51961.19;5149956;27;20201;-82
2023/09/18 06:38:12;;;;;;;6.28;1.40;;;;;;;-145.69;51.50;51917.63;5147256;27;20203;-82
2023/09/18 06:40:39;;;;;;;7.78;1.85;;;;;;;-145.69;50.34;51979.03;5153596;27;20203;-82
2023/09/18 06:43:05;;;;;;;4.78;1.23;;;;;;;-145.69;48.79;51955.25;5136354;27;20197;-82
2023/09/18 06:45:33;;;;;;;9.13;1.33;;;;;;;-145.69;47.57;51953.28;5138603;27;20575;-82
2023/09/18 06:48:01;;;;;;;10.13;1.80;;;;;;;-145.69;48.74;51969.13;5137191;27;20193;-82
2023/09/18 06:50:27;;;;;;;8.00;1.73;;;;;;;-145.69;47.58;51957.25;5130694;27;20189;-83
2023/09/18 06:52:53;;;;;;;11.65;1.50;;;;;;;-145.69;47.17;51961.19;5135318;27;20199;-84
2023/09/18 06:55:20;;;;;;;5.80;1.33;;;;;;;-145.69;47.03;51961.19;5140253;27;20200;-84
2023/09/18 06:57:47;;;;;;;7.13;1.40;;;;;;;-145.69;47.31;51953.28;5140875;27;20190;-83
2023/09/18 07:00:18;;;;;;;8.23;1.35;;;;;;;-145.69;47.77;51949.31;5136999;27;20291;-81
2023/09/18 07:02:45;;;;;;;8.60;1.73;;;;;;;-145.69;48.27;51957.25;5126057;27;20580;-81
2023/09/18 07:05:12;;;;;;;11.27;1.30;;;;;;;-145.69;48.99;51935.47;5113909;28;20294;-82
2023/09/18 07:07:39;;;;;;;13.35;1.73;;;;;;;-145.69;48.24;51947.34;5135750;27;20207;-83
2023/09/18 07:10:06;;;;;;;10.93;1.92;;;;;;;-145.69;47.76;51951.28;5131119;27;20281;-82
2023/09/18 07:12:33;;;;;;;9.63;1.77;;;;;;;-145.69;48.80;51941.41;5095362;28;20209;-83
2023/09/18 07:15:04;;;;;;;6.00;1.33;;;;;;;-145.69;47.82;51937.44;5117326;27;20193;-83
2023/09/18 07:17:30;;;;;;;7.25;1.45;;;;;;;-145.69;48.16;51957.25;5116396;28;20234;-83
2023/09/18 07:19:57;;;;;;;5.85;1.67;;;;;;;-145.69;47.63;51969.13;5116425;27;20208;-82
2023/09/18 07:22:25;;;;;;;10.70;1.52;;;;;;;-145.69;48.07;51937.44;5130862;27;20666;-83
2023/09/18 07:24:51;;;;;;;4.82;1.13;;;;;;;-145.69;47.65;51949.31;5136490;27;20224;-83
2023/09/18 07:27:17;;;;;;;7.50;1.77;;;;;;;-145.69;47.77;51925.56;5116764;28;20198;-82
2023/09/18 07:29:44;;;;;;;6.65;1.10;;;;;;;-145.69;47.02;51945.34;5110239;28;20205;-81
2023/09/18 07:32:11;;;;;;;6.20;1.20;;;;;;;-145.69;46.92;51937.44;5116334;27;20201;-82
2023/09/18 07:34:38;;;;;;;6.38;1.20;;;;;;;-145.69;47.23;51947.34;5135286;27;20231;-82
2023/09/18 07:37:04;;;;;;;7.93;1.25;;;;;;;-145.69;47.02;51917.63;5136011;27;20200;-83
2023/09/18 07:39:32;;;;;;;5.68;1.23;;;;;;;-145.69;46.12;51937.44;5135549;27;20193;-83
2023/09/18 07:41:59;;;;;;;6.78;1.20;;;;;;;-145.69;46.65;51945.34;5102466;27;20259;-83
2023/09/18 07:44:25;;;;;;;3.83;1.23;;;;;;;-145.69;46.23;51949.31;5096721;28;20217;-82
2023/09/18 07:46:54;;;;;;;6.15;1.00;;;;;;;-145.69;46.42;51939.41;5113876;28;20208;-83
2023/09/18 07:49:20;;;;;;;6.07;1.00;;;;;;;-145.69;48.51;51943.38;5114731;28;20201;-83
2023/09/18 07:51:47;;;;;;;6.55;1.20;;;;;;;-145.69;51.05;51947.34;5124495;27;20201;-83
2023/09/18 07:54:16;;;;;;;7.78;0.85;;;;;;;-145.69;51.82;51941.41;5135209;27;20204;-84
2023/09/18 07:56:44;;;;;;;5.60;1.55;;;;;;;-145.69;53.36;51935.47;5120242;27;20245;-84
2023/09/18 07:59:11;;;;;;;4.38;0.95;;;;;;;-145.69;54.61;51969.13;5115172;27;20201;-85
2023/09/18 08:01:37;;;;;;;5.00;1.20;;;;;;;-145.69;57.93;51971.09;5131205;27;20257;-85
2023/09/18 08:04:05;;;;;;;1.35;0.90;;;;;;;-145.69;59.19;51981.00;5114357;28;20648;-84
2023/09/18 08:06:32;;;;;;;8.73;1.27;;;;;;;-145.69;60.89;51988.91;5115168;28;20662;-86
2023/09/18 08:08:58;;;;;;;9.07;1.30;;;;;;;-145.69;60.69;51984.97;5115630;28;20632;-85
2023/09/18 08:11:25;;;;;;;2.15;0.90;;;;;;;-145.69;61.92;51981.00;5100772;28;20592;-86
2023/09/18 08:13:53;;;;;;;4.65;1.40;;;;;;;-145.69;63.31;52016.66;5095370;28;20205;-86
2023/09/18 08:16:19;;;;;;;3.22;1.17;;;;;;;-145.69;63.92;52000.81;5094035;28;20202;-82
2023/09/18 08:18:46;;;;;;;2.30;0.80;;;;;;;-145.69;63.94;51984.97;5094161;28;20226;-83
2023/09/18 08:21:13;;;;;;;2.58;0.90;;;;;;;-145.69;64.24;51992.88;5109112;27;20658;-82
2023/09/18 08:23:40;;;;;;;3.38;1.15;;;;;;;-145.69;63.76;51988.91;5113962;27;20202;-82
2023/09/18 08:26:07;;;;;;;1.48;0.90;;;;;;;-145.69;63.71;52000.81;5092912;28;20704;-82
2023/09/18 08:28:35;;;;;;;1.67;0.80;;;;;;;-145.69;63.88;51977.03;5093182;28;20206;-83
2023/09/18 08:31:03;;;;;;;3.28;1.35;;;;;;;-145.69;64.74;51992.88;5101924;28;20238;-84
2023/09/18 08:33:30;;;;;;;3.15;0.93;;;;;;;-145.69;62.09;52028.53;5113794;28;20228;-83
2023/09/18 08:35:56;;;;;;;3.83;1.23;;;;;;;-145.69;63.65;52012.69;5117087;27;20596;-84
2023/09/18 08:38:23;;;;;;;2.28;0.90;;;;;;;-145.69;63.99;51975.06;5130693;28;20200;-84
2023/09/18 08:40:49;;;;;;;2.33;0.80;;;;;;;-145.69;63.46;51965.16;5125504;28;20197;-84
2023/09/18 08:43:18;;;;;;;1.60;0.90;;;;;;;-145.69;63.19;51977.03;5113861;28;20205;-84
2023/09/18 08:45:52;;;;;;;3.53;0.80;;;;;;;-145.69;61.86;51961.19;5113803;28;20227;-83
2023/09/18 08:48:20;;;;;;;0.80;0.50;;;;;;;-145.69;61.38;51990.91;5113624;28;20237;-84
2023/09/18 08:50:47;;;;;;;4.85;0.75;;;;;;;-145.69;59.86;51977.03;5113845;28;20552;-84
2023/09/18 08:53:14;;;;;;;2.58;0.73;;;;;;;-145.69;60.25;51961.19;5133214;27;20196;-84
2023/09/18 08:55:41;;;;;;;3.13;1.10;;;;;;;-145.69;59.97;51996.84;5124186;27;20209;-84
2023/09/18 08:58:08;;;;;;;1.85;0.50;;;;;;;-145.69;59.81;51988.91;5097283;28;20280;-84
2023/09/18 09:00:37;;;;;;;1.40;0.75;;;;;;;-145.69;60.28;51971.09;5097831;28;20193;-84
2023/09/18 09:03:04;;;;;;;1.60;0.70;;;;;;;-145.69;59.69;51982.97;5115974;27;20200;-84
2023/09/18 09:05:33;;;;;;;4.10;1.10;;;;;;;-145.69;59.84;51977.03;5105533;27;20232;-84
2023/09/18 09:07:59;;;;;;;2.28;0.85;;;;;;;-145.69;59.95;51981.00;5116535;28;20208;-85
2023/09/18 09:10:26;;;;;;;1.98;0.70;;;;;;;-145.69;59.91;51981.00;5117613;27;20205;-85
2023/09/18 09:12:55;;;;;;;1.52;0.73;;;;;;;-145.69;60.12;51967.13;5117466;28;20220;-85
2023/09/18 09:15:22;;;;;;;4.03;0.70;;;;;;;-145.69;60.32;51992.88;5115810;28;20197;-84
2023/09/18 09:17:50;;;;;;;0.93;0.50;;;;;;;-145.69;59.38;51969.13;5096919;28;20588;-85
2023/09/18 09:20:18;;;;;;;1.75;0.60;;;;;;;-145.69;58.98;51971.09;5096342;28;20204;-84
2023/09/18 09:22:46;;;;;;;0.68;0.52;;;;;;;-145.69;59.01;51992.88;5134474;27;20212;-84
2023/09/18 09:25:26;;;;;;;0.75;0.55;;;;;;;-145.69;57.80;51965.16;5137389;27;20598;-84
2023/09/18 09:27:54;;;;;;;1.05;0.60;;;;;;;-145.69;56.96;51969.13;5096758;28;20201;-85
2023/09/18 09:30:23;;;;;;;1.17;0.57;;;;;;;-145.69;56.82;51957.25;5119998;27;20210;-83
2023/09/18 09:32:50;;;;;;;2.55;0.70;;;;;;;-145.69;55.74;51998.81;5114846;28;20220;-84
2023/09/18 09:35:26;;;;;;;2.90;0.63;;;;;;;-145.69;55.31;51981.00;5116222;27;20716;-84
2023/09/18 09:37:57;;;;;;;1.00;0.60;;;;;;;-145.69;55.62;51951.28;5096856;28;20638;-83
2023/09/18 09:40:24;;;;;;;0.90;0.65;;;;;;;-145.69;54.68;51973.06;5096664;28;20605;-84
2023/09/18 09:42:53;;;;;;;0.52;0.52;;;;;;;-145.69;53.42;51982.97;5096648;28;20194;-84
2023/09/18 09:45:21;;;;;;;2.65;0.75;;;;;;;-145.69;52.53;51969.13;5096283;28;20247;-84
2023/09/18 09:47:47;;;;;;;1.40;0.40;;;;;;;-145.69;52.48;51959.22;5101151;28;20198;-85
2023/09/18 09:50:18;;;;;;;1.73;0.73;;;;;;;-145.69;51.92;51951.28;5095860;28;20206;-84
2023/09/18 09:52:48;;;;;;;1.48;0.57;;;;;;;-145.69;51.79;51986.94;5132348;27;20559;-85
2023/09/18 09:55:22;;;;;;;1.83;0.70;;;;;;;-145.69;51.87;51975.06;5136470;27;20196;-82
2023/09/18 09:57:50;;;;;;;2.65;0.77;;;;;;;-145.69;52.47;51961.19;5098359;27;20231;-84
2023/09/18 10:00:26;;;;;;;1.05;0.75;;;;;;;-145.69;53.00;51971.09;5107713;27;20661;-85
2023/09/18 10:02:57;;;;;;;3.35;0.90;;;;;;;-145.69;52.62;52004.75;5116471;27;20337;-85
2023/09/18 10:05:28;;;;;;;5.25;0.95;;;;;;;-145.69;53.27;51977.03;5119396;27;20216;-86
2023/09/18 10:07:58;;;;;;;3.00;0.80;;;;;;;-145.69;52.57;51953.28;5126175;27;20204;-82
2023/09/18 10:10:30;;;;;;;1.27;0.60;;;;;;;-145.69;52.01;51981.00;5120869;27;20193;-85
2023/09/18 10:13:01;;;;;;;4.47;1.10;;;;;;;-145.69;52.09;51969.13;5120125;27;20200;-84
2023/09/18 10:15:31;;;;;;;3.75;0.90;;;;;;;-145.69;51.46;51977.03;5116195;27;20193;-84
2023/09/18 10:18:00;;;;;;;2.55;0.70;;;;;;;-145.69;51.64;51984.97;5100348;28;20224;-85
2023/09/18 10:20:29;;;;;;;2.90;1.13;;;;;;;-145.69;51.61;51973.06;5116070;28;20201;-86
2023/09/18 10:23:01;;;;;;;2.80;0.80;;;;;;;-145.69;51.55;51979.03;5131014;27;20193;-86
2023/09/18 10:25:31;;;;;;;2.03;0.80;;;;;;;-145.69;52.44;51971.09;5136232;27;20228;-83
2023/09/18 10:28:02;;;;;;;1.05;0.63;;;;;;;-145.69;54.41;51957.25;5117170;27;20208;-84
2023/09/18 10:30:34;;;;;;;3.53;0.95;;;;;;;-145.69;54.68;51969.13;5115448;28;20292;-83
2023/09/18 10:33:01;;;;;;;1.77;0.73;;;;;;;-145.69;55.44;51959.22;5115544;28;20288;-84
2023/09/18 10:35:28;;;;;;;3.20;1.05;;;;;;;-145.69;55.40;51981.00;5117653;27;20898;-85
2023/09/18 10:37:55;;;;;;;1.17;0.57;;;;;;;-145.69;52.87;51969.13;5122417;27;20276;-84
2023/09/18 10:40:22;;;;;;;3.25;1.00;;;;;;;-145.69;52.34;51977.03;5118933;27;20443;-83
2023/09/18 10:42:53;;;;;;;1.63;0.60;;;;;;;-145.69;53.38;51957.25;5127410;27;20245;-83
2023/09/18 10:45:20;;;;;;;2.72;0.80;;;;;;;-145.69;53.53;51943.38;5135693;27;20237;-83
2023/09/18 10:47:49;;;;;;;1.83;0.60;;;;;;;-145.69;53.20;51957.25;5117162;27;20193;-85
2023/09/18 10:50:24;;;;;;;6.22;0.80;;;;;;;-145.69;53.24;51977.03;5115486;27;20219;-84
2023/09/18 10:52:50;;;;;;;1.08;0.80;;;;;;;-145.69;52.69;51943.38;5130894;27;20227;-86
2023/09/18 10:55:20;;;;;;;4.05;0.85;;;;;;;-145.69;50.36;51955.25;5115183;28;20286;-84
2023/09/18 10:57:55;;;;;;;2.65;0.70;;;;;;;-145.69;50.64;51963.19;5124122;27;20192;-81
2023/09/18 11:00:25;;;;;;;3.03;0.98;;;;;;;-145.69;50.85;51957.25;5135534;27;20195;-83
2023/09/18 11:02:52;;;;;;;1.60;0.70;;;;;;;-145.69;52.17;51994.88;5128416;27;20227;-85
2023/09/18 11:05:38;;;;;;;0.98;0.73;;;;;;;-145.69;51.30;51965.16;5126536;27;20221;-81
2023/09/18 11:08:30;;;;;;;1.67;0.60;;;;;;;-145.69;51.26;51975.06;5132092;27;20197;-84
2023/09/18 11:11:09;;;;;;;1.92;0.80;;;;;;;-145.69;51.98;51984.97;5107673;28;20231;-83
2023/09/18 11:13:40;;;;;;;3.78;0.98;;;;;;;-145.69;53.04;51965.16;5114922;27;20193;-84
2023/09/18 11:16:35;;;;;;;1.77;0.80;;;;;;;-145.69;52.21;51973.06;5122353;27;20200;-84
2023/09/18 11:19:14;;;;;;;3.17;0.90;;;;;;;-145.69;53.09;51945.34;5099076;28;20220;-87